sensor_id;sensor_type;location;lat;lon;timestamp;P1;durP1;ratioP1;P2;durP2;ratioP2
53903;SDS011;39812;52.430;16.936;2024-01-11T00:00:59;15.80;;;8.55;;
53903;SDS011;39812;52.430;16.936;2024-01-11T00:03:25;20.60;;;8.10;;
53903;SDS011;39812;52.430;16.936;2024-01-11T00:05:51;28.52;;;11.93;;
53903;SDS011;39812;52.430;16.936;2024-01-11T00:08:17;30.65;;;8.85;;
53903;SDS011;39812;52.430;16.936;2024-01-11T00:10:42;14.48;;;7.60;;
53903;SDS011;39812;52.430;16.936;2024-01-11T00:13:08;22.55;;;9.48;;
53903;SDS011;39812;52.430;16.936;2024-01-11T00:15:34;18.38;;;9.02;;
53903;SDS011;39812;52.430;16.936;2024-01-11T00:17:59;21.30;;;6.75;;
53903;SDS011;39812;52.430;16.936;2024-01-11T00:20:25;14.30;;;6.25;;
53903;SDS011;39812;52.430;16.936;2024-01-11T00:22:51;28.98;;;9.15;;
53903;SDS011;39812;52.430;16.936;2024-01-11T00:25:17;16.15;;;5.25;;
53903;SDS011;39812;52.430;16.936;2024-01-11T00:27:43;22.25;;;5.03;;
53903;SDS011;39812;52.430;16.936;2024-01-11T00:30:09;16.85;;;6.47;;
53903;SDS011;39812;52.430;16.936;2024-01-11T00:32:34;15.35;;;6.00;;
53903;SDS011;39812;52.430;16.936;2024-01-11T00:35:00;19.58;;;7.82;;
53903;SDS011;39812;52.430;16.936;2024-01-11T00:37:25;30.33;;;10.45;;
53903;SDS011;39812;52.430;16.936;2024-01-11T00:39:51;7.85;;;4.88;;
53903;SDS011;39812;52.430;16.936;2024-01-11T00:42:17;29.60;;;9.80;;
53903;SDS011;39812;52.430;16.936;2024-01-11T00:44:43;24.02;;;9.13;;
53903;SDS011;39812;52.430;16.936;2024-01-11T00:47:10;16.10;;;8.18;;
53903;SDS011;39812;52.430;16.936;2024-01-11T00:49:36;12.77;;;5.63;;
53903;SDS011;39812;52.430;16.936;2024-01-11T00:52:01;20.67;;;7.80;;
53903;SDS011;39812;52.430;16.936;2024-01-11T00:54:27;9.80;;;5.03;;
53903;SDS011;39812;52.430;16.936;2024-01-11T00:56:53;21.60;;;8.15;;
53903;SDS011;39812;52.430;16.936;2024-01-11T00:59:19;6.80;;;5.35;;
53903;SDS011;39812;52.430;16.936;2024-01-11T01:01:47;12.15;;;7.55;;
53903;SDS011;39812;52.430;16.936;2024-01-11T01:04:13;17.65;;;8.98;;
53903;SDS011;39812;52.430;16.936;2024-01-11T01:06:40;18.85;;;6.10;;
53903;SDS011;39812;52.430;16.936;2024-01-11T01:09:06;29.40;;;10.73;;
53903;SDS011;39812;52.430;16.936;2024-01-11T01:11:32;15.77;;;7.88;;
53903;SDS011;39812;52.430;16.936;2024-01-11T01:13:58;23.30;;;11.50;;
53903;SDS011;39812;52.430;16.936;2024-01-11T01:16:24;14.77;;;7.80;;
53903;SDS011;39812;52.430;16.936;2024-01-11T01:18:50;23.05;;;9.57;;
53903;SDS011;39812;52.430;16.936;2024-01-11T01:21:16;13.55;;;6.95;;
53903;SDS011;39812;52.430;16.936;2024-01-11T01:23:42;18.65;;;8.40;;
53903;SDS011;39812;52.430;16.936;2024-01-11T01:26:08;26.27;;;9.60;;
53903;SDS011;39812;52.430;16.936;2024-01-11T01:28:34;16.58;;;7.60;;
53903;SDS011;39812;52.430;16.936;2024-01-11T01:31:01;15.25;;;6.00;;
53903;SDS011;39812;52.430;16.936;2024-01-11T01:33:27;15.25;;;7.07;;
53903;SDS011;39812;52.430;16.936;2024-01-11T01:35:53;18.52;;;10.18;;
53903;SDS011;39812;52.430;16.936;2024-01-11T01:38:18;28.83;;;10.70;;
53903;SDS011;39812;52.430;16.936;2024-01-11T01:40:44;15.07;;;7.25;;
53903;SDS011;39812;52.430;16.936;2024-01-11T01:43:10;21.05;;;9.10;;
53903;SDS011;39812;52.430;16.936;2024-01-11T01:45:37;21.27;;;11.43;;
53903;SDS011;39812;52.430;16.936;2024-01-11T01:48:04;12.95;;;6.88;;
53903;SDS011;39812;52.430;16.936;2024-01-11T01:50:30;17.17;;;7.60;;
53903;SDS011;39812;52.430;16.936;2024-01-11T01:52:56;14.80;;;8.00;;
53903;SDS011;39812;52.430;16.936;2024-01-11T01:55:23;12.57;;;7.82;;
53903;SDS011;39812;52.430;16.936;2024-01-11T01:57:49;29.52;;;11.93;;
53903;SDS011;39812;52.430;16.936;2024-01-11T02:00:16;20.75;;;9.90;;
53903;SDS011;39812;52.430;16.936;2024-01-11T02:02:43;16.25;;;9.63;;
53903;SDS011;39812;52.430;16.936;2024-01-11T02:05:09;18.52;;;7.57;;
53903;SDS011;39812;52.430;16.936;2024-01-11T02:07:36;24.70;;;9.13;;
53903;SDS011;39812;52.430;16.936;2024-01-11T02:10:02;25.33;;;8.15;;
53903;SDS011;39812;52.430;16.936;2024-01-11T02:12:28;13.90;;;6.22;;
53903;SDS011;39812;52.430;16.936;2024-01-11T02:14:54;17.70;;;6.30;;
53903;SDS011;39812;52.430;16.936;2024-01-11T02:17:20;16.25;;;8.50;;
53903;SDS011;39812;52.430;16.936;2024-01-11T02:19:46;20.02;;;8.40;;
53903;SDS011;39812;52.430;16.936;2024-01-11T02:22:22;25.45;;;10.73;;
53903;SDS011;39812;52.430;16.936;2024-01-11T02:24:49;17.95;;;8.70;;
53903;SDS011;39812;52.430;16.936;2024-01-11T02:27:15;19.30;;;8.65;;
53903;SDS011;39812;52.430;16.936;2024-01-11T02:29:41;35.58;;;11.32;;
53903;SDS011;39812;52.430;16.936;2024-01-11T02:32:07;16.20;;;7.18;;
53903;SDS011;39812;52.430;16.936;2024-01-11T02:34:33;16.60;;;7.07;;
53903;SDS011;39812;52.430;16.936;2024-01-11T02:36:59;21.00;;;7.30;;
53903;SDS011;39812;52.430;16.936;2024-01-11T02:39:25;16.48;;;6.97;;
53903;SDS011;39812;52.430;16.936;2024-01-11T02:41:52;14.07;;;6.38;;
53903;SDS011;39812;52.430;16.936;2024-01-11T02:44:20;25.73;;;9.48;;
53903;SDS011;39812;52.430;16.936;2024-01-11T02:46:45;25.70;;;9.48;;
53903;SDS011;39812;52.430;16.936;2024-01-11T02:49:11;38.20;;;12.50;;
53903;SDS011;39812;52.430;16.936;2024-01-11T02:51:37;20.08;;;7.70;;
53903;SDS011;39812;52.430;16.936;2024-01-11T02:54:03;15.70;;;6.10;;
53903;SDS011;39812;52.430;16.936;2024-01-11T02:56:29;19.10;;;6.70;;
53903;SDS011;39812;52.430;16.936;2024-01-11T02:58:55;34.67;;;9.68;;
53903;SDS011;39812;52.430;16.936;2024-01-11T03:01:21;6.10;;;4.13;;
53903;SDS011;39812;52.430;16.936;2024-01-11T03:03:47;19.00;;;7.43;;
53903;SDS011;39812;52.430;16.936;2024-01-11T03:06:13;19.38;;;8.40;;
53903;SDS011;39812;52.430;16.936;2024-01-11T03:08:39;16.90;;;6.85;;
53903;SDS011;39812;52.430;16.936;2024-01-11T03:11:05;17.38;;;7.05;;
53903;SDS011;39812;52.430;16.936;2024-01-11T03:13:31;19.95;;;6.90;;
53903;SDS011;39812;52.430;16.936;2024-01-11T03:15:57;25.35;;;9.98;;
53903;SDS011;39812;52.430;16.936;2024-01-11T03:18:23;22.73;;;7.55;;
53903;SDS011;39812;52.430;16.936;2024-01-11T03:20:49;12.07;;;4.93;;
53903;SDS011;39812;52.430;16.936;2024-01-11T03:23:14;17.13;;;7.00;;
53903;SDS011;39812;52.430;16.936;2024-01-11T03:25:40;22.95;;;8.40;;
53903;SDS011;39812;52.430;16.936;2024-01-11T03:28:06;17.08;;;6.95;;
53903;SDS011;39812;52.430;16.936;2024-01-11T03:30:31;17.48;;;6.75;;
53903;SDS011;39812;52.430;16.936;2024-01-11T03:32:57;18.50;;;6.82;;
53903;SDS011;39812;52.430;16.936;2024-01-11T03:35:23;16.65;;;5.50;;
53903;SDS011;39812;52.430;16.936;2024-01-11T03:37:49;23.42;;;8.98;;
53903;SDS011;39812;52.430;16.936;2024-01-11T03:40:16;7.68;;;4.38;;
53903;SDS011;39812;52.430;16.936;2024-01-11T03:42:42;17.05;;;6.95;;
53903;SDS011;39812;52.430;16.936;2024-01-11T03:45:08;15.48;;;6.80;;
53903;SDS011;39812;52.430;16.936;2024-01-11T03:47:35;17.98;;;6.38;;
53903;SDS011;39812;52.430;16.936;2024-01-11T03:50:01;21.45;;;7.05;;
53903;SDS011;39812;52.430;16.936;2024-01-11T03:52:27;32.13;;;10.50;;
53903;SDS011;39812;52.430;16.936;2024-01-11T03:54:53;20.10;;;6.85;;
53903;SDS011;39812;52.430;16.936;2024-01-11T03:57:19;22.95;;;7.20;;
53903;SDS011;39812;52.430;16.936;2024-01-11T03:59:44;11.98;;;5.53;;
53903;SDS011;39812;52.430;16.936;2024-01-11T04:02:11;15.73;;;7.07;;
53903;SDS011;39812;52.430;16.936;2024-01-11T04:04:37;18.48;;;8.63;;
53903;SDS011;39812;52.430;16.936;2024-01-11T04:07:03;10.95;;;5.20;;
53903;SDS011;39812;52.430;16.936;2024-01-11T04:09:28;18.55;;;4.97;;
53903;SDS011;39812;52.430;16.936;2024-01-11T04:11:54;24.02;;;6.65;;
53903;SDS011;39812;52.430;16.936;2024-01-11T04:14:19;15.95;;;6.25;;
53903;SDS011;39812;52.430;16.936;2024-01-11T04:16:45;14.93;;;7.60;;
53903;SDS011;39812;52.430;16.936;2024-01-11T04:19:10;16.10;;;7.57;;
53903;SDS011;39812;52.430;16.936;2024-01-11T04:21:36;24.67;;;9.38;;
53903;SDS011;39812;52.430;16.936;2024-01-11T04:24:04;13.15;;;4.82;;
53903;SDS011;39812;52.430;16.936;2024-01-11T04:26:31;19.70;;;8.32;;
53903;SDS011;39812;52.430;16.936;2024-01-11T04:28:56;21.55;;;6.25;;
53903;SDS011;39812;52.430;16.936;2024-01-11T04:31:24;22.10;;;7.13;;
53903;SDS011;39812;52.430;16.936;2024-01-11T04:33:50;16.55;;;7.43;;
53903;SDS011;39812;52.430;16.936;2024-01-11T04:36:16;24.88;;;9.25;;
53903;SDS011;39812;52.430;16.936;2024-01-11T04:38:42;18.08;;;7.30;;
53903;SDS011;39812;52.430;16.936;2024-01-11T04:41:08;17.25;;;7.30;;
53903;SDS011;39812;52.430;16.936;2024-01-11T04:43:37;11.95;;;5.53;;
53903;SDS011;39812;52.430;16.936;2024-01-11T04:46:12;22.58;;;7.85;;
53903;SDS011;39812;52.430;16.936;2024-01-11T04:51:04;18.25;;;7.20;;
53903;SDS011;39812;52.430;16.936;2024-01-11T04:53:30;20.38;;;7.10;;
53903;SDS011;39812;52.430;16.936;2024-01-11T04:55:56;14.90;;;5.35;;
53903;SDS011;39812;52.430;16.936;2024-01-11T04:58:22;15.60;;;6.90;;
53903;SDS011;39812;52.430;16.936;2024-01-11T05:00:48;20.45;;;7.85;;
53903;SDS011;39812;52.430;16.936;2024-01-11T05:03:14;13.43;;;6.97;;
53903;SDS011;39812;52.430;16.936;2024-01-11T05:05:40;21.65;;;7.15;;
53903;SDS011;39812;52.430;16.936;2024-01-11T05:08:05;10.25;;;4.13;;
53903;SDS011;39812;52.430;16.936;2024-01-11T05:10:31;36.10;;;10.93;;
53903;SDS011;39812;52.430;16.936;2024-01-11T05:12:57;24.88;;;7.45;;
53903;SDS011;39812;52.430;16.936;2024-01-11T05:15:23;27.75;;;7.35;;
53903;SDS011;39812;52.430;16.936;2024-01-11T05:17:49;18.10;;;7.80;;
53903;SDS011;39812;52.430;16.936;2024-01-11T05:20:14;18.38;;;7.00;;
53903;SDS011;39812;52.430;16.936;2024-01-11T05:22:40;20.92;;;8.80;;
53903;SDS011;39812;52.430;16.936;2024-01-11T05:25:05;22.23;;;8.15;;
53903;SDS011;39812;52.430;16.936;2024-01-11T05:27:31;23.00;;;7.80;;
53903;SDS011;39812;52.430;16.936;2024-01-11T05:29:57;22.20;;;8.65;;
53903;SDS011;39812;52.430;16.936;2024-01-11T05:32:23;27.25;;;9.18;;
53903;SDS011;39812;52.430;16.936;2024-01-11T05:34:49;12.77;;;7.47;;
53903;SDS011;39812;52.430;16.936;2024-01-11T05:37:14;13.60;;;5.50;;
53903;SDS011;39812;52.430;16.936;2024-01-11T05:39:41;11.93;;;7.13;;
53903;SDS011;39812;52.430;16.936;2024-01-11T05:42:06;17.85;;;5.82;;
53903;SDS011;39812;52.430;16.936;2024-01-11T05:44:32;19.52;;;8.02;;
53903;SDS011;39812;52.430;16.936;2024-01-11T05:46:58;19.25;;;7.55;;
53903;SDS011;39812;52.430;16.936;2024-01-11T05:49:26;24.45;;;9.18;;
53903;SDS011;39812;52.430;16.936;2024-01-11T05:51:52;32.00;;;7.93;;
53903;SDS011;39812;52.430;16.936;2024-01-11T05:54:18;15.10;;;5.93;;
53903;SDS011;39812;52.430;16.936;2024-01-11T05:56:44;24.65;;;7.90;;
53903;SDS011;39812;52.430;16.936;2024-01-11T05:59:10;23.38;;;7.60;;
53903;SDS011;39812;52.430;16.936;2024-01-11T06:01:40;15.32;;;6.10;;
53903;SDS011;39812;52.430;16.936;2024-01-11T06:04:07;32.17;;;9.40;;
53903;SDS011;39812;52.430;16.936;2024-01-11T06:06:33;24.85;;;9.25;;
53903;SDS011;39812;52.430;16.936;2024-01-11T06:08:58;23.08;;;9.07;;
53903;SDS011;39812;52.430;16.936;2024-01-11T06:11:24;22.20;;;6.47;;
53903;SDS011;39812;52.430;16.936;2024-01-11T06:13:50;12.75;;;5.97;;
53903;SDS011;39812;52.430;16.936;2024-01-11T06:16:16;32.08;;;9.00;;
53903;SDS011;39812;52.430;16.936;2024-01-11T06:18:42;19.67;;;7.47;;
53903;SDS011;39812;52.430;16.936;2024-01-11T06:21:09;10.80;;;5.20;;
53903;SDS011;39812;52.430;16.936;2024-01-11T06:23:36;28.70;;;9.55;;
53903;SDS011;39812;52.430;16.936;2024-01-11T06:26:02;21.20;;;8.45;;
53903;SDS011;39812;52.430;16.936;2024-01-11T06:28:28;37.38;;;12.35;;
53903;SDS011;39812;52.430;16.936;2024-01-11T06:30:54;22.00;;;7.78;;
53903;SDS011;39812;52.430;16.936;2024-01-11T06:33:20;39.08;;;9.63;;
53903;SDS011;39812;52.430;16.936;2024-01-11T06:35:46;16.15;;;7.25;;
53903;SDS011;39812;52.430;16.936;2024-01-11T06:38:12;19.75;;;7.50;;
53903;SDS011;39812;52.430;16.936;2024-01-11T06:40:38;23.42;;;6.55;;
53903;SDS011;39812;52.430;16.936;2024-01-11T06:43:04;16.73;;;7.43;;
53903;SDS011;39812;52.430;16.936;2024-01-11T06:45:30;17.85;;;7.60;;
53903;SDS011;39812;52.430;16.936;2024-01-11T06:47:56;16.17;;;6.22;;
53903;SDS011;39812;52.430;16.936;2024-01-11T06:50:22;13.50;;;6.55;;
53903;SDS011;39812;52.430;16.936;2024-01-11T06:52:47;18.85;;;8.07;;
53903;SDS011;39812;52.430;16.936;2024-01-11T06:55:13;19.35;;;6.80;;
53903;SDS011;39812;52.430;16.936;2024-01-11T06:57:39;26.88;;;10.00;;
53903;SDS011;39812;52.430;16.936;2024-01-11T07:00:05;38.35;;;11.02;;
53903;SDS011;39812;52.430;16.936;2024-01-11T07:02:32;20.92;;;8.15;;
53903;SDS011;39812;52.430;16.936;2024-01-11T07:04:58;19.15;;;7.20;;
53903;SDS011;39812;52.430;16.936;2024-01-11T07:07:24;25.00;;;8.07;;
53903;SDS011;39812;52.430;16.936;2024-01-11T07:09:51;20.55;;;6.95;;
53903;SDS011;39812;52.430;16.936;2024-01-11T07:12:20;27.52;;;9.13;;
53903;SDS011;39812;52.430;16.936;2024-01-11T07:14:46;19.58;;;7.50;;
53903;SDS011;39812;52.430;16.936;2024-01-11T07:17:11;18.77;;;7.45;;
53903;SDS011;39812;52.430;16.936;2024-01-11T07:19:37;24.70;;;9.45;;
53903;SDS011;39812;52.430;16.936;2024-01-11T07:22:03;29.27;;;8.38;;
53903;SDS011;39812;52.430;16.936;2024-01-11T07:24:29;17.50;;;7.03;;
53903;SDS011;39812;52.430;16.936;2024-01-11T07:27:02;19.13;;;7.10;;
53903;SDS011;39812;52.430;16.936;2024-01-11T07:29:31;24.85;;;9.55;;
53903;SDS011;39812;52.430;16.936;2024-01-11T07:32:00;20.50;;;8.57;;
53903;SDS011;39812;52.430;16.936;2024-01-11T07:34:26;31.33;;;10.75;;
53903;SDS011;39812;52.430;16.936;2024-01-11T07:36:52;28.45;;;9.38;;
53903;SDS011;39812;52.430;16.936;2024-01-11T07:39:19;35.92;;;9.82;;
53903;SDS011;39812;52.430;16.936;2024-01-11T07:41:44;19.70;;;8.52;;
53903;SDS011;39812;52.430;16.936;2024-01-11T07:44:10;20.33;;;8.35;;
53903;SDS011;39812;52.430;16.936;2024-01-11T07:46:36;16.10;;;7.03;;
53903;SDS011;39812;52.430;16.936;2024-01-11T07:49:03;23.48;;;9.18;;
53903;SDS011;39812;52.430;16.936;2024-01-11T07:51:29;29.23;;;7.90;;
53903;SDS011;39812;52.430;16.936;2024-01-11T07:53:55;25.38;;;8.63;;
53903;SDS011;39812;52.430;16.936;2024-01-11T07:56:21;30.45;;;10.32;;
53903;SDS011;39812;52.430;16.936;2024-01-11T07:58:47;29.10;;;10.45;;
53903;SDS011;39812;52.430;16.936;2024-01-11T08:01:13;17.00;;;7.13;;
53903;SDS011;39812;52.430;16.936;2024-01-11T08:03:41;28.23;;;8.93;;
53903;SDS011;39812;52.430;16.936;2024-01-11T08:06:09;19.75;;;8.55;;
53903;SDS011;39812;52.430;16.936;2024-01-11T08:08:35;35.92;;;12.00;;
53903;SDS011;39812;52.430;16.936;2024-01-11T08:11:01;13.10;;;5.85;;
53903;SDS011;39812;52.430;16.936;2024-01-11T08:13:28;27.58;;;9.70;;
53903;SDS011;39812;52.430;16.936;2024-01-11T08:15:56;27.77;;;7.10;;
53903;SDS011;39812;52.430;16.936;2024-01-11T08:18:22;27.85;;;9.68;;
53903;SDS011;39812;52.430;16.936;2024-01-11T08:20:48;20.23;;;7.45;;
53903;SDS011;39812;52.430;16.936;2024-01-11T08:23:14;21.42;;;8.65;;
53903;SDS011;39812;52.430;16.936;2024-01-11T08:25:41;28.45;;;9.18;;
53903;SDS011;39812;52.430;16.936;2024-01-11T08:28:06;20.95;;;9.50;;
53903;SDS011;39812;52.430;16.936;2024-01-11T08:30:32;34.10;;;10.38;;
53903;SDS011;39812;52.430;16.936;2024-01-11T08:32:58;29.70;;;9.13;;
53903;SDS011;39812;52.430;16.936;2024-01-11T08:35:24;24.40;;;8.50;;
53903;SDS011;39812;52.430;16.936;2024-01-11T08:37:51;23.90;;;7.45;;
53903;SDS011;39812;52.430;16.936;2024-01-11T08:40:16;29.77;;;9.65;;
53903;SDS011;39812;52.430;16.936;2024-01-11T08:42:42;26.25;;;9.00;;
53903;SDS011;39812;52.430;16.936;2024-01-11T08:45:08;21.05;;;5.53;;
53903;SDS011;39812;52.430;16.936;2024-01-11T08:47:34;35.65;;;11.70;;
53903;SDS011;39812;52.430;16.936;2024-01-11T08:50:00;26.73;;;10.32;;
53903;SDS011;39812;52.430;16.936;2024-01-11T08:52:26;23.48;;;9.52;;
53903;SDS011;39812;52.430;16.936;2024-01-11T08:54:52;34.88;;;9.20;;
53903;SDS011;39812;52.430;16.936;2024-01-11T08:57:18;51.85;;;12.05;;
53903;SDS011;39812;52.430;16.936;2024-01-11T08:59:44;35.75;;;12.27;;
53903;SDS011;39812;52.430;16.936;2024-01-11T09:02:10;29.75;;;9.23;;
53903;SDS011;39812;52.430;16.936;2024-01-11T09:04:36;33.42;;;13.63;;
53903;SDS011;39812;52.430;16.936;2024-01-11T09:07:02;24.70;;;9.02;;
53903;SDS011;39812;52.430;16.936;2024-01-11T09:09:28;28.67;;;8.80;;
53903;SDS011;39812;52.430;16.936;2024-01-11T09:11:54;31.63;;;11.07;;
53903;SDS011;39812;52.430;16.936;2024-01-11T09:14:20;29.75;;;11.82;;
53903;SDS011;39812;52.430;16.936;2024-01-11T09:16:45;18.10;;;7.65;;
53903;SDS011;39812;52.430;16.936;2024-01-11T09:19:14;36.22;;;10.18;;
53903;SDS011;39812;52.430;16.936;2024-01-11T09:21:39;27.40;;;8.82;;
53903;SDS011;39812;52.430;16.936;2024-01-11T09:24:07;32.50;;;9.55;;
53903;SDS011;39812;52.430;16.936;2024-01-11T09:26:33;18.45;;;8.18;;
53903;SDS011;39812;52.430;16.936;2024-01-11T09:28:58;30.58;;;10.25;;
53903;SDS011;39812;52.430;16.936;2024-01-11T09:31:24;35.67;;;11.40;;
53903;SDS011;39812;52.430;16.936;2024-01-11T09:33:50;27.30;;;9.68;;
53903;SDS011;39812;52.430;16.936;2024-01-11T09:36:16;26.80;;;9.35;;
53903;SDS011;39812;52.430;16.936;2024-01-11T09:38:42;23.67;;;10.35;;
53903;SDS011;39812;52.430;16.936;2024-01-11T09:41:09;34.92;;;12.38;;
53903;SDS011;39812;52.430;16.936;2024-01-11T09:43:36;45.70;;;15.10;;
53903;SDS011;39812;52.430;16.936;2024-01-11T09:46:03;25.27;;;9.65;;
53903;SDS011;39812;52.430;16.936;2024-01-11T09:48:36;30.58;;;11.80;;
53903;SDS011;39812;52.430;16.936;2024-01-11T09:51:06;30.45;;;11.60;;
53903;SDS011;39812;52.430;16.936;2024-01-11T09:53:35;29.95;;;8.88;;
53903;SDS011;39812;52.430;16.936;2024-01-11T09:56:03;32.28;;;13.27;;
53903;SDS011;39812;52.430;16.936;2024-01-11T09:58:35;32.47;;;11.10;;
53903;SDS011;39812;52.430;16.936;2024-01-11T10:01:06;29.60;;;11.05;;
53903;SDS011;39812;52.430;16.936;2024-01-11T10:03:34;28.58;;;10.32;;
53903;SDS011;39812;52.430;16.936;2024-01-11T10:06:00;39.85;;;12.38;;
53903;SDS011;39812;52.430;16.936;2024-01-11T10:08:27;32.80;;;10.60;;
53903;SDS011;39812;52.430;16.936;2024-01-11T10:10:54;43.70;;;13.23;;
53903;SDS011;39812;52.430;16.936;2024-01-11T10:13:25;35.33;;;12.50;;
53903;SDS011;39812;52.430;16.936;2024-01-11T10:15:53;36.58;;;12.18;;
53903;SDS011;39812;52.430;16.936;2024-01-11T10:18:34;45.78;;;16.08;;
53903;SDS011;39812;52.430;16.936;2024-01-11T10:21:00;45.22;;;14.18;;
53903;SDS011;39812;52.430;16.936;2024-01-11T10:23:26;33.95;;;11.65;;
53903;SDS011;39812;52.430;16.936;2024-01-11T10:25:54;29.15;;;9.70;;
53903;SDS011;39812;52.430;16.936;2024-01-11T10:28:26;62.92;;;16.75;;
53903;SDS011;39812;52.430;16.936;2024-01-11T10:30:52;41.72;;;9.05;;
53903;SDS011;39812;52.430;16.936;2024-01-11T10:33:19;50.17;;;13.65;;
53903;SDS011;39812;52.430;16.936;2024-01-11T10:35:48;43.97;;;13.45;;
53903;SDS011;39812;52.430;16.936;2024-01-11T10:38:15;27.30;;;8.93;;
53903;SDS011;39812;52.430;16.936;2024-01-11T10:40:41;52.83;;;12.75;;
53903;SDS011;39812;52.430;16.936;2024-01-11T10:43:11;49.95;;;12.85;;
53903;SDS011;39812;52.430;16.936;2024-01-11T10:45:37;33.25;;;10.63;;
53903;SDS011;39812;52.430;16.936;2024-01-11T10:48:06;36.67;;;13.88;;
53903;SDS011;39812;52.430;16.936;2024-01-11T10:50:41;40.97;;;14.38;;
53903;SDS011;39812;52.430;16.936;2024-01-11T10:55:59;47.88;;;12.55;;
53903;SDS011;39812;52.430;16.936;2024-01-11T10:58:27;35.42;;;11.57;;
53903;SDS011;39812;52.430;16.936;2024-01-11T11:00:54;32.42;;;12.85;;
53903;SDS011;39812;52.430;16.936;2024-01-11T11:03:20;41.92;;;12.35;;
53903;SDS011;39812;52.430;16.936;2024-01-11T11:05:48;45.28;;;16.40;;
53903;SDS011;39812;52.430;16.936;2024-01-11T11:08:17;38.05;;;12.27;;
53903;SDS011;39812;52.430;16.936;2024-01-11T11:10:44;26.98;;;9.88;;
53903;SDS011;39812;52.430;16.936;2024-01-11T11:13:12;37.05;;;12.20;;
53903;SDS011;39812;52.430;16.936;2024-01-11T11:15:40;33.70;;;12.85;;
53903;SDS011;39812;52.430;16.936;2024-01-11T11:18:10;31.40;;;11.82;;
53903;SDS011;39812;52.430;16.936;2024-01-11T11:20:38;29.05;;;11.75;;
53903;SDS011;39812;52.430;16.936;2024-01-11T11:23:07;38.85;;;14.52;;
53903;SDS011;39812;52.430;16.936;2024-01-11T11:25:38;35.95;;;12.38;;
53903;SDS011;39812;52.430;16.936;2024-01-11T11:28:05;59.22;;;15.55;;
53903;SDS011;39812;52.430;16.936;2024-01-11T11:30:36;37.70;;;12.20;;
53903;SDS011;39812;52.430;16.936;2024-01-11T11:35:48;53.72;;;16.92;;
53903;SDS011;39812;52.430;16.936;2024-01-11T11:38:20;61.78;;;17.52;;
53903;SDS011;39812;52.430;16.936;2024-01-11T11:40:47;48.80;;;14.43;;
53903;SDS011;39812;52.430;16.936;2024-01-11T11:43:15;47.08;;;16.40;;
53903;SDS011;39812;52.430;16.936;2024-01-11T11:45:42;31.23;;;14.43;;
53903;SDS011;39812;52.430;16.936;2024-01-11T11:48:47;50.55;;;18.08;;
53903;SDS011;39812;52.430;16.936;2024-01-11T11:53:33;27.60;;;11.55;;
53903;SDS011;39812;52.430;16.936;2024-01-11T11:55:59;46.25;;;14.88;;
53903;SDS011;39812;52.430;16.936;2024-01-11T11:58:25;35.65;;;14.60;;
53903;SDS011;39812;52.430;16.936;2024-01-11T12:00:55;49.50;;;19.13;;
53903;SDS011;39812;52.430;16.936;2024-01-11T12:03:29;43.38;;;15.98;;
53903;SDS011;39812;52.430;16.936;2024-01-11T12:06:02;49.90;;;15.00;;
53903;SDS011;39812;52.430;16.936;2024-01-11T12:08:28;45.05;;;15.50;;
53903;SDS011;39812;52.430;16.936;2024-01-11T12:10:55;38.95;;;14.07;;
53903;SDS011;39812;52.430;16.936;2024-01-11T12:13:21;38.78;;;14.02;;
53903;SDS011;39812;52.430;16.936;2024-01-11T12:15:47;31.65;;;12.48;;
53903;SDS011;39812;52.430;16.936;2024-01-11T12:18:12;26.92;;;11.88;;
53903;SDS011;39812;52.430;16.936;2024-01-11T12:20:38;32.55;;;14.13;;
53903;SDS011;39812;52.430;16.936;2024-01-11T12:23:04;32.83;;;11.90;;
53903;SDS011;39812;52.430;16.936;2024-01-11T12:25:31;27.52;;;11.50;;
53903;SDS011;39812;52.430;16.936;2024-01-11T12:27:57;30.38;;;11.10;;
53903;SDS011;39812;52.430;16.936;2024-01-11T12:30:23;36.63;;;14.93;;
53903;SDS011;39812;52.430;16.936;2024-01-11T12:32:50;33.40;;;11.98;;
53903;SDS011;39812;52.430;16.936;2024-01-11T12:35:16;40.17;;;14.85;;
53903;SDS011;39812;52.430;16.936;2024-01-11T12:37:52;39.10;;;12.95;;
53903;SDS011;39812;52.430;16.936;2024-01-11T12:40:23;23.65;;;11.18;;
53903;SDS011;39812;52.430;16.936;2024-01-11T12:42:52;27.20;;;10.90;;
53903;SDS011;39812;52.430;16.936;2024-01-11T12:45:18;30.83;;;12.30;;
53903;SDS011;39812;52.430;16.936;2024-01-11T12:47:44;31.42;;;13.43;;
53903;SDS011;39812;52.430;16.936;2024-01-11T12:50:14;25.90;;;11.20;;
53903;SDS011;39812;52.430;16.936;2024-01-11T12:52:39;31.40;;;11.93;;
53903;SDS011;39812;52.430;16.936;2024-01-11T12:55:07;31.92;;;12.25;;
53903;SDS011;39812;52.430;16.936;2024-01-11T12:57:42;34.85;;;12.88;;
53903;SDS011;39812;52.430;16.936;2024-01-11T13:00:09;42.10;;;13.10;;
53903;SDS011;39812;52.430;16.936;2024-01-11T13:02:36;36.90;;;14.10;;
53903;SDS011;39812;52.430;16.936;2024-01-11T13:05:02;28.48;;;12.93;;
53903;SDS011;39812;52.430;16.936;2024-01-11T13:07:28;39.50;;;15.35;;
53903;SDS011;39812;52.430;16.936;2024-01-11T13:09:54;28.52;;;11.15;;
53903;SDS011;39812;52.430;16.936;2024-01-11T13:12:20;27.55;;;11.20;;
53903;SDS011;39812;52.430;16.936;2024-01-11T13:14:46;32.55;;;11.88;;
53903;SDS011;39812;52.430;16.936;2024-01-11T13:17:12;33.38;;;11.00;;
53903;SDS011;39812;52.430;16.936;2024-01-11T13:19:38;23.60;;;10.02;;
53903;SDS011;39812;52.430;16.936;2024-01-11T13:22:04;38.03;;;13.80;;
53903;SDS011;39812;52.430;16.936;2024-01-11T13:24:30;21.45;;;10.38;;
53903;SDS011;39812;52.430;16.936;2024-01-11T13:26:56;33.08;;;13.25;;
53903;SDS011;39812;52.430;16.936;2024-01-11T13:29:21;25.40;;;11.10;;
53903;SDS011;39812;52.430;16.936;2024-01-11T13:31:47;26.63;;;9.70;;
53903;SDS011;39812;52.430;16.936;2024-01-11T13:34:13;33.80;;;11.63;;
53903;SDS011;39812;52.430;16.936;2024-01-11T13:36:39;24.33;;;9.60;;
53903;SDS011;39812;52.430;16.936;2024-01-11T13:39:05;31.70;;;10.73;;
53903;SDS011;39812;52.430;16.936;2024-01-11T13:41:33;30.10;;;9.48;;
53903;SDS011;39812;52.430;16.936;2024-01-11T13:43:59;26.77;;;8.88;;
53903;SDS011;39812;52.430;16.936;2024-01-11T13:46:25;30.88;;;10.68;;
53903;SDS011;39812;52.430;16.936;2024-01-11T13:48:51;25.73;;;9.90;;
53903;SDS011;39812;52.430;16.936;2024-01-11T13:51:18;17.83;;;7.95;;
53903;SDS011;39812;52.430;16.936;2024-01-11T13:53:43;24.77;;;10.07;;
53903;SDS011;39812;52.430;16.936;2024-01-11T13:56:09;22.08;;;8.60;;
53903;SDS011;39812;52.430;16.936;2024-01-11T13:58:35;25.88;;;11.48;;
53903;SDS011;39812;52.430;16.936;2024-01-11T14:01:01;26.25;;;8.57;;
53903;SDS011;39812;52.430;16.936;2024-01-11T14:03:27;43.97;;;14.63;;
53903;SDS011;39812;52.430;16.936;2024-01-11T14:05:53;25.83;;;10.13;;
53903;SDS011;39812;52.430;16.936;2024-01-11T14:08:19;22.45;;;7.85;;
53903;SDS011;39812;52.430;16.936;2024-01-11T14:10:45;22.73;;;9.05;;
53903;SDS011;39812;52.430;16.936;2024-01-11T14:13:10;33.17;;;9.82;;
53903;SDS011;39812;52.430;16.936;2024-01-11T14:15:36;23.85;;;8.27;;
53903;SDS011;39812;52.430;16.936;2024-01-11T14:18:03;31.17;;;12.07;;
53903;SDS011;39812;52.430;16.936;2024-01-11T14:20:28;21.77;;;9.25;;
53903;SDS011;39812;52.430;16.936;2024-01-11T14:22:55;15.40;;;8.20;;